Time;durP1;ratioP1;P1;durP2;ratioP2;P2;SDS_P1;SDS_P2;PMS_P1;PMS_P2;Temp;Humidity;BMP_temperature;BMP_pressure;BME280_temperature;BME280_humidity;BME280_pressure;Samples;Min_cycle;Max_cycle;Signal;HPM_P1;HPM_P2
2022/06/16 06:18:29;;;;;;;6.22;3.95;;;23.60;99.90;;;;;;5045061;28;20044;-86
2022/06/16 06:20:55;;;;;;;7.47;3.92;;;23.60;99.90;;;;;;5048045;28;20022;-86
2022/06/16 06:23:21;;;;;;;9.50;4.43;;;23.70;99.90;;;;;;5062723;28;20029;-85
2022/06/16 06:25:46;;;;;;;8.00;3.80;;;23.80;99.90;;;;;;5029879;28;20116;-86
2022/06/16 06:28:18;;;;;;;6.97;3.97;;;23.90;99.90;;;;;;5067023;28;20032;-86
2022/06/16 06:30:44;;;;;;;17.63;4.28;;;24.00;99.90;;;;;;5062898;28;20031;-84
2022/06/16 06:33:09;;;;;;;27.55;5.05;;;24.10;99.90;;;;;;5036779;28;20029;-84
2022/06/16 06:35:35;;;;;;;37.42;6.13;;;24.20;99.90;;;;;;5044477;28;20055;-85
2022/06/16 06:38:01;;;;;;;17.90;5.07;;;24.10;99.90;;;;;;5029662;28;20060;-85
2022/06/16 06:40:30;;;;;;;11.93;4.45;;;24.10;99.90;;;;;;5060474;28;20029;-85
2022/06/16 06:42:57;;;;;;;9.25;4.43;;;24.20;99.90;;;;;;5045517;28;20104;-87
2022/06/16 06:45:23;;;;;;;26.48;4.65;;;24.10;99.90;;;;;;5045851;28;20028;-81
2022/06/16 06:47:49;;;;;;;11.98;5.20;;;24.00;99.90;;;;;;5046748;28;20032;-90
2022/06/16 06:50:25;;;;;;;17.90;4.85;;;23.80;99.90;;;;;;5047423;28;20018;-86
2022/06/16 06:52:52;;;;;;;12.18;4.90;;;23.80;99.90;;;;;;5041700;28;20033;-88
2022/06/16 06:55:19;;;;;;;9.43;4.53;;;23.70;99.90;;;;;;5047670;28;20087;-82
2022/06/16 06:57:45;;;;;;;14.77;4.80;;;23.70;99.90;;;;;;5048750;28;20496;-83
2022/06/16 07:00:17;;;;;;;10.23;4.88;;;23.70;99.90;;;;;;5045147;28;20029;-83
2022/06/16 07:02:43;;;;;;;17.85;5.38;;;23.70;99.90;;;;;;5042279;28;20044;-84
2022/06/16 07:05:09;;;;;;;10.55;4.47;;;23.60;99.90;;;;;;5043818;28;20037;-84
2022/06/16 07:07:36;;;;;;;14.48;4.80;;;23.70;99.90;;;;;;5045819;28;20645;-84
2022/06/16 07:10:04;;;;;;;7.82;4.78;;;23.80;99.90;;;;;;5026456;28;20600;-82
2022/06/16 07:12:30;;;;;;;8.82;4.50;;;23.90;99.90;;;;;;5045616;28;20063;-81
2022/06/16 07:14:56;;;;;;;7.57;4.35;;;23.80;99.90;;;;;;5044965;28;20081;-84
2022/06/16 07:17:23;;;;;;;12.25;4.20;;;23.90;99.90;;;;;;5045089;28;20021;-84
2022/06/16 07:19:50;;;;;;;10.90;4.57;;;24.00;99.90;;;;;;5044820;28;20435;-82
2022/06/16 07:22:16;;;;;;;6.05;4.22;;;24.00;99.90;;;;;;5044467;28;20045;-85
2022/06/16 07:24:42;;;;;;;7.20;4.35;;;24.00;99.90;;;;;;5044514;28;20096;-83
2022/06/16 07:27:09;;;;;;;6.22;4.15;;;24.00;99.90;;;;;;5034081;28;20113;-84
2022/06/16 07:29:35;;;;;;;12.30;4.45;;;24.10;99.90;;;;;;5031933;28;20021;-84
2022/06/16 07:32:01;;;;;;;6.22;4.30;;;24.20;99.90;;;;;;5031974;28;20639;-84
2022/06/16 07:34:28;;;;;;;6.38;4.97;;;24.30;99.90;;;;;;5031376;28;20061;-83
2022/06/16 07:36:54;;;;;;;14.48;4.57;;;24.40;99.90;;;;;;5031945;28;20508;-84
2022/06/16 07:39:19;;;;;;;13.07;4.95;;;24.50;99.90;;;;;;5032362;28;20415;-84
2022/06/16 07:41:45;;;;;;;9.95;4.65;;;24.60;99.90;;;;;;5015204;28;20028;-83
2022/06/16 07:44:15;;;;;;;7.10;4.25;;;24.60;99.90;;;;;;5033363;28;20033;-84
2022/06/16 07:46:43;;;;;;;9.30;4.65;;;24.60;99.90;;;;;;5032852;28;20013;-84
2022/06/16 07:49:15;;;;;;;8.15;4.43;;;24.70;99.90;;;;;;5032996;28;20018;-84
2022/06/16 07:51:42;;;;;;;11.15;4.95;;;24.80;99.90;;;;;;5047466;28;20353;-82
2022/06/16 07:54:12;;;;;;;15.77;5.25;;;24.80;99.90;;;;;;5032942;28;20021;-84
2022/06/16 07:56:38;;;;;;;20.60;5.28;;;24.80;99.90;;;;;;5032873;28;20052;-84
2022/06/16 07:59:04;;;;;;;9.30;4.90;;;24.80;99.90;;;;;;5023219;28;20096;-83
2022/06/16 08:01:30;;;;;;;10.15;4.57;;;24.90;99.90;;;;;;5032975;28;20112;-85
2022/06/16 08:03:56;;;;;;;12.88;4.18;;;24.90;99.90;;;;;;5032635;28;20476;-83
2022/06/16 08:06:26;;;;;;;9.35;4.28;;;25.10;99.90;;;;;;5032667;28;20025;-84
2022/06/16 08:08:53;;;;;;;8.35;4.20;;;25.10;99.90;;;;;;5016064;28;20389;-85
2022/06/16 08:14:04;;;;;;;15.02;4.68;;;25.10;99.90;;;;;;5022732;28;20103;-85
2022/06/16 08:16:33;;;;;;;10.38;5.22;;;25.10;99.90;;;;;;5032308;28;20018;-84
2022/06/16 08:18:59;;;;;;;10.43;5.10;;;25.20;99.90;;;;;;5029726;28;20033;-84
2022/06/16 08:21:25;;;;;;;6.15;4.18;;;25.30;99.90;;;;;;5028719;28;20029;-84
2022/06/16 08:23:51;;;;;;;23.13;4.70;;;25.50;99.90;;;;;;5029218;28;20029;-83
2022/06/16 08:26:17;;;;;;;10.40;4.10;;;25.40;99.90;;;;;;5028482;28;20480;-83
2022/06/16 08:28:43;;;;;;;6.90;3.90;;;25.40;99.90;;;;;;5028663;28;20032;-82
2022/06/16 08:31:09;;;;;;;7.68;3.75;;;25.50;99.90;;;;;;5028492;28;20025;-85
2022/06/16 08:33:36;;;;;;;18.95;4.50;;;25.50;99.90;;;;;;5028886;28;20029;-82
2022/06/16 08:36:02;;;;;;;7.57;4.55;;;25.40;99.90;;;;;;5016735;28;20544;-83
2022/06/16 08:38:27;;;;;;;5.60;3.90;;;25.20;99.90;;;;;;5028207;28;20421;-83
2022/06/16 08:41:13;;;;;;;9.02;4.25;;;25.10;99.90;;;;;;5028375;28;20079;-84
2022/06/16 08:44:14;;;;;;;11.07;3.78;;;25.10;99.90;;;;;;5028056;28;20029;-84
2022/06/16 08:46:51;;;;;;;7.65;4.03;;;25.30;99.90;;;;;;5026047;28;20071;-83
2022/06/16 08:49:42;;;;;;;5.07;3.97;;;25.40;99.90;;;;;;5028642;28;20415;-84
2022/06/16 08:52:19;;;;;;;20.85;4.38;;;25.40;99.90;;;;;;5028256;28;20040;-83
2022/06/16 08:55:12;;;;;;;12.10;5.15;;;25.40;99.90;;;;;;5027898;28;20044;-85
2022/06/16 08:57:51;;;;;;;;;;;25.30;99.90;;;;;;5041096;28;20036;-84
2022/06/16 09:00:26;;;;;;;10.70;4.35;;;25.30;99.90;;;;;;5028215;28;19905;-85
2022/06/16 09:02:53;;;;;;;7.88;4.43;;;25.30;99.90;;;;;;5028084;28;20033;-85
2022/06/16 09:05:27;;;;;;;8.07;4.13;;;25.50;99.90;;;;;;5029909;28;20026;-84
2022/06/16 09:08:02;;;;;;;7.63;4.15;;;25.60;99.90;;;;;;5031693;28;20106;-83
2022/06/16 09:10:37;;;;;;;6.68;4.20;;;25.60;99.90;;;;;;5031255;28;20017;-85
2022/06/16 09:13:24;;;;;;;12.65;4.63;;;25.60;99.90;;;;;;5023494;28;20037;-83
2022/06/16 09:16:01;;;;;;;10.93;4.22;;;25.80;99.90;;;;;;5046670;28;20163;-83
2022/06/16 09:18:54;;;;;;;7.78;4.47;;;25.70;99.90;;;;;;5031500;28;20113;-85
2022/06/16 09:21:24;;;;;;;10.43;4.03;;;25.60;99.90;;;;;;5026082;28;20032;-85
2022/06/16 09:24:14;;;;;;;13.35;4.15;;;25.60;99.90;;;;;;5031162;28;20033;-83
2022/06/16 09:26:49;;;;;;;32.30;4.10;;;25.70;99.90;;;;;;5029180;28;20498;-84
2022/06/16 09:29:35;;;;;;;14.52;5.07;;;25.90;99.90;;;;;;5031256;28;20040;-83
2022/06/16 09:32:25;;;;;;;17.33;4.68;;;26.10;99.90;;;;;;5031231;28;20025;-84
2022/06/16 09:34:56;;;;;;;17.65;4.53;;;26.30;99.90;;;;;;5046185;28;20045;-83
2022/06/16 09:37:31;;;;;;;11.88;4.25;;;26.30;99.90;;;;;;5013691;28;20026;-84
2022/06/16 09:40:06;;;;;;;11.63;4.60;;;26.50;99.90;;;;;;5030020;28;20096;-83
2022/06/16 09:42:37;;;;;;;18.10;4.78;;;26.60;99.90;;;;;;5027695;28;20026;-83
2022/06/16 09:45:30;;;;;;;9.85;4.55;;;26.80;99.90;;;;;;5030673;28;20014;-84
2022/06/16 09:48:06;;;;;;;14.50;3.92;;;26.90;99.90;;;;;;5030920;28;20022;-84
2022/06/16 09:51:08;;;;;;;12.90;4.30;;;26.90;99.90;;;;;;5030573;28;20119;-82
2022/06/16 09:54:08;;;;;;;11.43;4.20;;;27.00;99.90;;;;;;5024306;28;20467;-82
2022/06/16 09:56:50;;;;;;;5.60;3.67;;;27.00;99.90;;;;;;5007982;28;20404;-83
2022/06/16 09:59:57;;;;;;;6.93;3.85;;;27.10;99.90;;;;;;5019143;28;20026;-82
2022/06/16 10:02:33;;;;;;;5.18;3.55;;;27.10;99.90;;;;;;4980259;28;20045;-83
2022/06/16 10:04:59;;;;;;;15.95;3.97;;;27.30;99.90;;;;;;5027248;28;20017;-82
2022/06/16 10:07:34;;;;;;;12.68;4.28;;;27.50;99.90;;;;;;5027685;28;20032;-84
2022/06/16 10:10:19;;;;;;;5.32;4.00;;;27.40;99.90;;;;;;5026930;28;20025;-83
2022/06/16 10:12:50;;;;;;;6.65;3.70;;;27.40;99.90;;;;;;5040706;28;20029;-83
2022/06/16 10:15:36;;;;;;;7.13;3.67;;;26.90;99.90;;;;;;5028817;28;20045;-83
2022/06/16 10:18:04;;;;;;;8.52;3.33;;;26.50;99.90;;;;;;5020934;28;20021;-83
2022/06/16 10:20:30;;;;;;;6.88;4.32;;;26.50;99.90;;;;;;5045821;28;20080;-83
2022/06/16 10:23:11;;;;;;;7.53;4.32;;;26.70;99.90;;;;;;5012988;28;20390;-83
2022/06/16 10:25:44;;;;;;;7.75;4.25;;;26.90;99.90;;;;;;5029390;28;20104;-84
2022/06/16 10:28:30;;;;;;;6.80;4.25;;;27.00;99.90;;;;;;5030692;28;20437;-84
2022/06/16 10:30:58;;;;;;;8.38;4.80;;;27.00;99.90;;;;;;5027312;28;20077;-82
2022/06/16 10:33:27;;;;;;;9.23;4.80;;;27.20;99.90;;;;;;5018087;28;20022;-84
2022/06/16 10:35:56;;;;;;;16.80;5.70;;;27.20;99.90;;;;;;5011775;28;20049;-84
2022/06/16 10:38:34;;;;;;;6.70;5.05;;;27.30;99.90;;;;;;5030438;28;20042;-82
2022/06/16 10:41:03;;;;;;;12.18;5.15;;;27.40;99.90;;;;;;5030139;28;20026;-82
2022/06/16 10:43:35;;;;;;;8.05;5.43;;;27.60;99.90;;;;;;5012708;28;20524;-82
2022/06/16 10:46:13;;;;;;;12.75;5.68;;;27.50;99.90;;;;;;5030288;28;20044;-81
2022/06/16 10:48:47;;;;;;;11.63;5.20;;;27.60;99.90;;;;;;5030356;28;20099;-83
2022/06/16 10:51:22;;;;;;;13.75;5.35;;;27.80;99.90;;;;;;5030045;28;20017;-82
2022/06/16 10:54:21;;;;;;;10.48;4.90;;;28.20;99.90;;;;;;5029848;28;20029;-83
2022/06/16 10:56:47;;;;;;;6.70;5.22;;;28.10;99.90;;;;;;5009230;28;20036;-83
2022/06/16 10:59:41;;;;;;;13.75;5.30;;;27.80;99.90;;;;;;5030230;28;20021;-84
2022/06/16 11:02:26;;;;;;;9.85;4.75;;;27.30;99.90;;;;;;5031453;28;20044;-84
2022/06/16 11:05:00;;;;;;;7.00;5.15;;;27.40;99.90;;;;;;5013673;28;20033;-84
2022/06/16 11:07:33;;;;;;;9.52;5.28;;;27.50;99.90;;;;;;5034569;28;20025;-83
2022/06/16 11:10:15;;;;;;;7.63;5.00;;;27.80;99.90;;;;;;5049957;28;20020;-83
2022/06/16 11:12:47;;;;;;;9.38;5.47;;;28.20;99.90;;;;;;5031407;28;20391;-83
2022/06/16 11:15:38;;;;;;;10.93;4.78;;;28.50;99.90;;;;;;5033493;28;20136;-84
2022/06/16 11:18:07;;;;;;;13.88;5.60;;;28.50;99.90;;;;;;5026020;28;20018;-83
2022/06/16 11:20:40;;;;;;;8.05;4.95;;;28.40;99.90;;;;;;5032271;28;20076;-84
2022/06/16 11:23:34;;;;;;;18.50;5.60;;;28.30;99.90;;;;;;5026487;28;20104;-85
2022/06/16 11:26:06;;;;;;;8.05;5.30;;;28.30;99.90;;;;;;5031394;28;20056;-84
2022/06/16 11:28:42;;;;;;;8.65;5.30;;;28.30;99.90;;;;;;5034212;28;20033;-86
2022/06/16 11:31:07;;;;;;;9.57;4.63;;;28.30;99.90;;;;;;5033291;28;20568;-81
2022/06/16 11:36:25;;;;;;;8.48;4.70;;;28.30;99.90;;;;;;5029644;28;20071;-81
2022/06/16 11:39:30;;;;;;;13.13;6.05;;;28.40;99.90;;;;;;5033590;28;20071;-81
2022/06/16 11:41:57;;;;;;;10.32;7.25;;;28.20;99.90;;;;;;5021332;28;20034;-82
2022/06/16 11:44:45;;;;;;;12.18;7.05;;;27.90;99.90;;;;;;5034098;28;20025;-82
2022/06/16 11:47:30;;;;;;;11.60;7.32;;;27.70;99.90;;;;;;5031741;28;20036;-83
2022/06/16 11:50:35;;;;;;;11.13;7.53;;;27.40;99.90;;;;;;5032698;28;20484;-81
2022/06/16 11:53:21;;;;;;;9.30;6.85;;;27.50;99.90;;;;;;5006980;28;20045;-81
2022/06/16 11:56:21;;;;;;;16.05;8.85;;;27.60;99.90;;;;;;5048292;28;20033;-81
2022/06/16 11:59:13;;;;;;;18.40;7.28;;;27.50;99.90;;;;;;5048519;28;20112;-81
2022/06/16 12:01:48;;;;;;;10.80;6.35;;;27.40;99.90;;;;;;4997224;28;20030;-81
2022/06/16 12:04:44;;;;;;;9.75;4.50;;;28.60;99.90;;;;;;5033113;28;20420;-82
2022/06/16 12:07:35;;;;;;;9.43;4.43;;;29.60;99.90;;;;;;5035652;28;20052;-83
2022/06/16 12:10:15;;;;;;;14.00;4.53;;;30.90;99.90;;;;;;5025424;28;20017;-84
2022/06/16 12:13:00;;;;;;;5.88;3.90;;;31.40;99.90;;;;;;5027602;28;20033;-83
2022/06/16 12:15:31;;;;;;;7.40;3.90;;;31.60;99.90;;;;;;5029868;28;20041;-84
2022/06/16 12:18:06;;;;;;;9.90;4.40;;;31.80;99.90;;;;;;5045596;28;20155;-83
2022/06/16 12:20:40;;;;;;;6.93;4.00;;;31.70;99.90;;;;;;5027623;28;20041;-91
2022/06/16 12:23:31;;;;;;;9.68;4.38;;;30.40;99.90;;;;;;5023506;28;20486;-92
2022/06/16 12:26:30;;;;;;;7.57;4.30;;;29.50;99.90;;;;;;5029002;28;20025;-84
2022/06/16 12:29:05;;;;;;;7.40;3.88;;;29.50;99.90;;;;;;5044900;28;20044;-89
2022/06/16 12:31:43;;;;;;;7.28;3.65;;;29.80;99.90;;;;;;5044540;28;20136;-87
2022/06/16 12:34:19;;;;;;;10.48;3.75;;;29.60;99.90;;;;;;5020450;28;20033;-86
2022/06/16 12:36:53;;;;;;;7.53;3.80;;;30.30;99.90;;;;;;5028633;28;20033;-83
2022/06/16 12:39:30;;;;;;;6.97;3.97;;;31.00;99.90;;;;;;5028809;28;20109;-89
2022/06/16 12:42:04;;;;;;;7.35;4.07;;;30.30;99.90;;;;;;5029484;28;20036;-88
2022/06/16 12:44:35;;;;;;;9.30;4.57;;;29.00;99.90;;;;;;5011347;28;20138;-85
2022/06/16 12:47:22;;;;;;;10.32;4.20;;;28.60;99.90;;;;;;5028814;28;20048;-88
2022/06/16 12:49:54;;;;;;;5.95;3.75;;;29.30;99.90;;;;;;5028105;28;20079;-84
2022/06/16 12:52:38;;;;;;;7.03;4.07;;;30.10;99.90;;;;;;5028976;28;20104;-83
2022/06/16 12:55:15;;;;;;;5.18;3.60;;;30.30;99.90;;;;;;5011597;28;20518;-89
2022/06/16 12:57:47;;;;;;;9.65;3.92;;;30.30;99.90;;;;;;5030348;28;20070;-91
2022/06/16 13:00:19;;;;;;;9.98;4.07;;;30.10;99.90;;;;;;5028377;28;20580;-89
2022/06/16 13:02:55;;;;;;;12.07;4.75;;;30.10;99.90;;;;;;5028878;28;20155;-85
2022/06/16 13:05:21;;;;;;;5.00;3.55;;;30.50;99.90;;;;;;5028649;28;20448;-91
2022/06/16 13:07:53;;;;;;;6.40;3.50;;;31.40;99.90;;;;;;5029525;28;20064;-88
2022/06/16 13:10:19;;;;;;;5.28;3.50;;;31.90;99.90;;;;;;5027652;28;20059;-87
2022/06/16 13:12:55;;;;;;;7.60;3.35;;;31.90;99.90;;;;;;5010941;28;20184;-88
2022/06/16 13:15:33;;;;;;;10.43;3.40;;;31.30;99.90;;;;;;5027646;28;20064;-88
2022/06/16 13:18:06;;;;;;;6.25;3.28;;;31.80;99.90;;;;;;5019241;28;20479;-85
2022/06/16 13:20:33;;;;;;;7.85;3.22;;;33.60;99.30;;;;;;5017682;28;20037;-90
2022/06/16 13:23:02;;;;;;;6.20;3.00;;;34.90;97.20;;;;;;5027808;28;20563;-89
2022/06/16 13:25:50;;;;;;;5.43;3.03;;;35.70;95.30;;;;;;5009904;28;20033;-91
2022/06/16 13:28:41;;;;;;;8.50;3.40;;;35.70;95.50;;;;;;5022502;28;20096;-89
2022/06/16 13:31:11;;;;;;;8.07;3.38;;;36.10;94.10;;;;;;5021751;28;20034;-89
2022/06/16 13:34:12;;;;;;;4.55;2.90;;;36.70;94.30;;;;;;5028705;28;20108;-91
2022/06/16 13:36:46;;;;;;;5.68;2.92;;;37.40;92.60;;;;;;5025529;28;20033;-85
2022/06/16 13:39:50;;;;;;;6.75;3.38;;;37.40;92.00;;;;;;5031691;28;20022;-87
2022/06/16 13:42:45;;;;;;;7.05;2.67;;;36.90;93.00;;;;;;5026700;28;20014;-86
2022/06/16 13:45:11;;;;;;;7.82;2.60;;;36.40;90.40;;;;;;5027374;28;20026;-87
2022/06/16 13:47:47;;;;;;;4.38;2.67;;;35.40;91.10;;;;;;5027647;28;20030;-86
2022/06/16 13:50:22;;;;;;;7.38;2.60;;;35.50;91.10;;;;;;5027123;28;20030;-87
2022/06/16 13:53:03;;;;;;;6.72;2.28;;;34.50;90.00;;;;;;5027998;28;20087;-90
2022/06/16 13:55:56;;;;;;;5.45;2.30;;;33.30;90.30;;;;;;5027125;28;20392;-84
2022/06/16 13:58:25;;;;;;;4.07;2.50;;;32.70;91.00;;;;;;4993568;28;20034;-85
2022/06/16 14:01:10;;;;;;;8.90;2.70;;;31.90;92.70;;;;;;5027650;28;20116;-85
2022/06/16 14:03:46;;;;;;;3.65;1.95;;;32.50;91.60;;;;;;5027587;28;20029;-87
2022/06/16 14:06:13;;;;;;;5.40;2.40;;;33.10;91.40;;;;;;5028017;28;20098;-84
2022/06/16 14:08:50;;;;;;;4.07;2.15;;;33.80;91.10;;;;;;5030793;28;20026;-87
2022/06/16 14:11:30;;;;;;;10.68;3.42;;;33.50;91.10;;;;;;5030987;28;20032;-85
2022/06/16 14:14:16;;;;;;;9.20;2.63;;;32.80;91.30;;;;;;5012780;28;20408;-88
2022/06/16 14:16:57;;;;;;;8.27;2.50;;;31.30;92.40;;;;;;5030159;28;20480;-88
2022/06/16 14:19:43;;;;;;;4.68;2.20;;;30.20;93.00;;;;;;5031571;28;20455;-86
2022/06/16 14:22:14;;;;;;;8.02;2.40;;;29.90;93.30;;;;;;5046736;28;20503;-85
2022/06/16 14:25:09;;;;;;;4.40;2.30;;;30.80;91.80;;;;;;5012615;28;20080;-90
2022/06/16 14:28:04;;;;;;;4.60;2.20;;;31.70;93.10;;;;;;5027947;28;20029;-84
2022/06/16 14:30:47;;;;;;;3.15;2.15;;;31.60;93.40;;;;;;5012719;28;20088;-81
2022/06/16 14:33:22;;;;;;;5.35;2.20;;;31.60;93.30;;;;;;5005821;28;20472;-84
2022/06/16 14:35:54;;;;;;;7.47;3.15;;;31.00;93.90;;;;;;5027377;28;20048;-84
2022/06/16 14:38:43;;;;;;;7.63;2.55;;;30.40;95.10;;;;;;5034664;28;20013;-83
2022/06/16 14:41:14;;;;;;;8.02;3.78;;;29.70;96.20;;;;;;5016953;28;20039;-84
2022/06/16 14:44:11;;;;;;;7.50;4.00;;;29.30;98.10;;;;;;5034508;28;20032;-85
2022/06/16 14:46:43;;;;;;;13.82;2.90;;;28.90;98.30;;;;;;5032965;28;20026;-84
2022/06/16 14:49:12;;;;;;;8.85;3.17;;;28.50;99.70;;;;;;5041084;28;20032;-82
2022/06/16 14:51:43;;;;;;;6.55;2.60;;;28.30;99.90;;;;;;5049906;28;20037;-83
2022/06/16 14:54:15;;;;;;;13.02;2.55;;;28.40;98.70;;;;;;5025455;28;20116;-86
2022/06/16 19:19:15;;;;;;;11.48;4.85;;;26.40;99.90;;;;;;5103524;27;20481;-88
2022/06/16 19:21:41;;;;;;;9.45;6.15;;;26.10;99.90;;;;;;5092179;28;20025;-90
2022/06/16 19:24:08;;;;;;;12.85;5.47;;;26.00;99.90;;;;;;5097972;28;20539;-85
2022/06/16 19:26:34;;;;;;;10.90;5.53;;;25.90;99.90;;;;;;5090969;28;20098;-91
2022/06/16 19:29:00;;;;;;;14.60;5.70;;;25.80;99.90;;;;;;5100657;28;20020;-91
2022/06/16 19:31:29;;;;;;;8.43;4.97;;;25.70;99.90;;;;;;5094865;28;20024;-93
2022/06/16 19:33:55;;;;;;;10.35;5.65;;;25.60;99.90;;;;;;5105675;28;20041;-94
2022/06/16 19:36:21;;;;;;;12.52;5.70;;;25.50;99.90;;;;;;5087974;28;20054;-91
2022/06/16 19:38:51;;;;;;;6.95;5.00;;;25.50;99.90;;;;;;5092080;28;20024;-93
2022/06/16 19:41:23;;;;;;;16.85;4.63;;;25.40;99.90;;;;;;5084085;28;20479;-89
2022/06/16 19:52:18;;;;;;;5.75;3.75;;;25.30;99.90;;;;;;5094697;28;20040;-93
2022/06/16 19:54:44;;;;;;;12.30;4.10;;;25.40;99.90;;;;;;5093097;28;20069;-86
2022/06/16 19:57:11;;;;;;;8.40;4.25;;;25.40;99.90;;;;;;5088690;28;20033;-86
2022/06/16 19:59:40;;;;;;;7.20;4.13;;;25.40;99.90;;;;;;5090501;28;20043;-93
2022/06/16 20:02:07;;;;;;;11.02;5.15;;;25.40;99.90;;;;;;5087992;28;20020;-92
2022/06/16 20:04:34;;;;;;;11.35;4.85;;;25.40;99.90;;;;;;5087957;28;20089;-93
2022/06/16 20:07:01;;;;;;;8.52;4.68;;;25.40;99.90;;;;;;5089930;28;20051;-93
2022/06/16 20:09:27;;;;;;;8.80;5.07;;;25.30;99.90;;;;;;5093838;28;20020;-90
2022/06/16 20:11:53;;;;;;;10.25;4.57;;;25.30;99.90;;;;;;5091550;28;20089;-92
2022/06/16 20:14:19;;;;;;;6.05;4.45;;;25.40;99.90;;;;;;5100267;28;20024;-91
2022/06/16 20:16:46;;;;;;;5.75;4.15;;;25.40;99.90;;;;;;5090671;28;20073;-86
2022/06/16 20:19:12;;;;;;;8.27;4.32;;;25.50;99.90;;;;;;5092772;28;20125;-90
2022/06/16 20:21:40;;;;;;;5.88;4.18;;;25.50;99.90;;;;;;5093007;28;20082;-91
2022/06/16 20:24:06;;;;;;;9.68;4.35;;;25.60;99.90;;;;;;5086287;28;20103;-91
2022/06/16 20:26:32;;;;;;;8.25;5.10;;;25.60;99.90;;;;;;5091881;28;20140;-90
2022/06/16 20:29:00;;;;;;;8.52;4.25;;;25.60;99.90;;;;;;5077837;28;20491;-89
2022/06/16 20:31:26;;;;;;;9.43;4.00;;;25.60;99.90;;;;;;5076995;28;20032;-95
